Time;durP1;ratioP1;P1;durP2;ratioP2;P2;SDS_P1;SDS_P2;PMS_P1;PMS_P2;Temp;Humidity;BMP_temperature;BMP_pressure;BME280_temperature;BME280_humidity;BME280_pressure;Samples;Min_cycle;Max_cycle;Signal;HPM_P1;HPM_P2
2022/04/17 00:00:36;;;;;;;;;;;;;;;18.90;60.85;100015.34;2079964;28;19961;-48
2022/04/17 00:01:37;;;;;;;;;;;;;;;18.89;60.83;100012.75;2083885;28;20267;-49
2022/04/17 00:02:37;;;;;;;;;;;;;;;18.90;60.83;100003.56;2082128;28;19924;-48
2022/04/17 00:03:38;;;;;;;;;;;;;;;18.89;60.78;100012.75;2077795;28;19917;-49
2022/04/17 00:04:38;;;;;;;;;;;;;;;18.89;60.82;100010.91;2080165;28;20247;-49
2022/04/17 00:05:38;;;;;;;;;;;;;;;18.89;60.85;100012.75;2078138;28;20218;-48
2022/04/17 00:06:39;;;;;;;;;;;;;;;18.88;60.93;100011.91;2079821;28;19921;-50
2022/04/17 00:07:40;;;;;;;;;;;;;;;18.88;60.86;100011.06;2084383;28;19920;-49
2022/04/17 00:08:40;;;;;;;;;;;;;;;18.87;60.88;100003.88;2084657;28;19921;-48
2022/04/17 00:09:40;;;;;;;;;;;;;;;18.87;60.83;100015.66;2085430;28;20314;-48
2022/04/17 00:10:41;;;;;;;;;;;;;;;18.86;60.75;100013.91;2077694;28;20486;-50
2022/04/17 00:11:42;;;;;;;;;;;;;;;18.87;60.91;100009.34;2080237;28;19917;-50
2022/04/17 00:12:42;;;;;;;;;;;;;;;18.87;60.89;100003.88;2082608;28;19916;-48
2022/04/17 00:13:45;;;;;;;;;;;;;;;18.85;60.88;100007.59;2086360;28;20182;-50
2022/04/17 00:14:46;;;;;;;;;;;;;;;18.85;60.80;100010.34;2083611;28;19939;-49
2022/04/17 00:15:46;;;;;;;;;;;;;;;18.85;60.83;100012.22;2083787;28;19922;-49
2022/04/17 00:16:46;;;;;;;;;;;;;;;18.86;60.84;100008.47;2079944;28;19912;-52
2022/04/17 00:17:47;;;;;;;;;;;;;;;18.84;60.87;100007.78;2083225;28;19923;-48
2022/04/17 00:18:48;;;;;;;;;;;;;;;18.85;60.81;100007.59;2084870;28;19995;-49
2022/04/17 00:19:48;;;;;;;;;;;;;;;18.84;60.97;100003.16;2084546;28;19916;-51
2022/04/17 00:20:49;;;;;;;;;;;;;;;18.84;60.88;100005.91;2082933;28;19913;-49
2022/04/17 00:21:49;;;;;;;;;;;;;;;18.84;60.75;100005.91;2086411;28;19916;-49
2022/04/17 00:22:49;;;;;;;;;;;;;;;18.84;60.86;100003.16;2077862;28;19915;-50
2022/04/17 00:23:50;;;;;;;;;;;;;;;18.83;60.87;100004.16;2084388;28;19922;-50
2022/04/17 00:24:50;;;;;;;;;;;;;;;18.83;60.79;100009.63;2083943;28;19995;-49
2022/04/17 00:25:50;;;;;;;;;;;;;;;18.82;60.78;100005.19;2084360;28;19955;-49
2022/04/17 00:26:50;;;;;;;;;;;;;;;18.84;60.73;100005.91;2086508;28;19920;-50
2022/04/17 00:27:51;;;;;;;;;;;;;;;18.84;60.75;100011.34;2082125;28;20316;-49
2022/04/17 00:28:51;;;;;;;;;;;;;;;18.83;60.70;100006.88;2085173;28;19915;-49
2022/04/17 00:29:52;;;;;;;;;;;;;;;18.84;60.80;100011.34;2084157;28;19908;-49
2022/04/17 00:30:52;;;;;;;;;;;;;;;18.85;60.78;100006.75;2081125;28;19973;-51
2022/04/17 00:31:53;;;;;;;;;;;;;;;18.84;60.65;100005.91;2085433;28;19953;-50
2022/04/17 00:32:53;;;;;;;;;;;;;;;18.83;60.85;99993.22;2084420;28;19916;-49
2022/04/17 00:33:54;;;;;;;;;;;;;;;18.84;60.75;100002.31;2082283;28;20314;-48
2022/04/17 00:34:54;;;;;;;;;;;;;;;18.83;60.76;100001.44;2079573;28;19904;-52
2022/04/17 00:35:55;;;;;;;;;;;;;;;18.82;60.65;99999.72;2079635;28;19960;-49
2022/04/17 00:36:59;;;;;;;;;;;;;;;18.83;60.83;100004.16;2084153;28;20235;-51
2022/04/17 00:37:59;;;;;;;;;;;;;;;18.82;60.64;100007.91;2082781;28;20031;-48
2022/04/17 00:39:00;;;;;;;;;;;;;;;18.82;60.80;100002.44;2081367;28;20145;-49
2022/04/17 00:40:00;;;;;;;;;;;;;;;18.83;60.73;100003.31;2078757;28;20401;-51
2022/04/17 00:41:01;;;;;;;;;;;;;;;18.82;60.73;100002.44;2081784;28;20230;-48
2022/04/17 00:42:04;;;;;;;;;;;;;;;18.81;60.78;100005.31;2084611;28;19952;-51
2022/04/17 00:43:25;;;;;;;;;;;;;;;18.80;60.79;99999.00;2079549;28;19966;-51
2022/04/17 00:44:26;;;;;;;;;;;;;;;18.81;60.82;100000.75;2082142;28;19984;-50
2022/04/17 00:45:26;;;;;;;;;;;;;;;18.80;60.86;100004.47;2084456;28;19927;-53
2022/04/17 00:46:27;;;;;;;;;;;;;;;18.80;60.83;100004.47;2082687;28;20015;-49
2022/04/17 00:47:28;;;;;;;;;;;;;;;18.80;60.92;100009.06;2087596;28;20085;-48
2022/04/17 00:48:29;;;;;;;;;;;;;;;18.79;60.92;100005.50;2086947;28;19927;-48
2022/04/17 00:49:29;;;;;;;;;;;;;;;18.79;60.75;100007.34;2081977;28;20337;-52
2022/04/17 00:50:30;;;;;;;;;;;;;;;18.79;60.85;100002.75;2081875;28;19920;-50
2022/04/17 00:51:30;;;;;;;;;;;;;;;18.78;60.81;100001.03;2084136;28;19920;-52
2022/04/17 00:52:31;;;;;;;;;;;;;;;18.79;60.84;100001.88;2076631;28;19990;-48
2022/04/17 00:53:31;;;;;;;;;;;;;;;18.79;60.87;99999.13;2081037;28;19981;-49
2022/04/17 00:54:33;;;;;;;;;;;;;;;18.78;60.85;100001.03;2082223;28;20273;-51
2022/04/17 00:55:33;;;;;;;;;;;;;;;18.78;60.70;100001.03;2084522;28;20345;-50
2022/04/17 00:56:34;;;;;;;;;;;;;;;18.79;60.89;100001.88;2080340;28;20391;-48
2022/04/17 00:57:35;;;;;;;;;;;;;;;18.78;60.78;99994.72;2077747;28;19967;-48
2022/04/17 00:58:36;;;;;;;;;;;;;;;18.79;60.87;99997.28;2084779;28;20219;-48
2022/04/17 00:59:37;;;;;;;;;;;;;;;18.78;60.85;100006.47;2080271;28;20215;-51
2022/04/17 01:00:37;;;;;;;;;;;;;;;18.79;60.81;100000.03;2079415;28;20002;-51
2022/04/17 01:01:38;;;;;;;;;;;;;;;18.79;60.85;99994.56;2083401;28;19926;-49
2022/04/17 01:02:38;;;;;;;;;;;;;;;18.79;60.75;100002.75;2078241;28;19999;-49
2022/04/17 01:03:38;;;;;;;;;;;;;;;18.78;60.74;100006.47;2082707;28;19920;-49
2022/04/17 01:04:39;;;;;;;;;;;;;;;18.79;60.80;100001.88;2080592;28;19924;-48
2022/04/17 01:05:42;;;;;;;;;;;;;;;18.78;60.76;100000.16;2080714;28;20013;-51
2022/04/17 01:06:43;;;;;;;;;;;;;;;18.79;60.80;100007.34;2081172;28;19998;-48
2022/04/17 01:07:43;;;;;;;;;;;;;;;18.79;60.67;100010.06;2082936;28;19979;-51
2022/04/17 01:08:44;;;;;;;;;;;;;;;18.78;60.80;100006.47;2084906;28;19917;-52
2022/04/17 01:09:45;;;;;;;;;;;;;;;18.78;60.74;100011.94;2080988;28;19924;-49
2022/04/17 01:10:45;;;;;;;;;;;;;;;18.78;60.74;100011.94;2082694;28;19952;-49
2022/04/17 01:11:48;;;;;;;;;;;;;;;18.78;60.83;99997.44;2086190;28;20315;-49
2022/04/17 01:12:48;;;;;;;;;;;;;;;18.77;60.86;100004.78;2083830;28;19982;-49
2022/04/17 01:13:49;;;;;;;;;;;;;;;18.77;60.81;100004.78;2084091;28;19920;-50
2022/04/17 01:14:51;;;;;;;;;;;;;;;18.76;60.80;100003.03;2082565;28;20416;-48
2022/04/17 01:15:53;;;;;;;;;;;;;;;18.76;60.81;100003.03;2083308;28;20247;-48
2022/04/17 01:16:56;;;;;;;;;;;;;;;18.76;60.92;100002.19;2085046;28;20462;-48
2022/04/17 01:17:56;;;;;;;;;;;;;;;18.75;60.92;99995.84;2080516;28;19920;-48
2022/04/17 01:19:02;;;;;;;;;;;;;;;18.75;61.06;99998.56;2080988;28;19920;-52
2022/04/17 01:20:04;;;;;;;;;;;;;;;18.75;61.04;99997.72;2080543;28;20554;-50
2022/04/17 01:21:08;;;;;;;;;;;;;;;18.75;61.09;100001.28;2085232;28;19920;-49
2022/04/17 01:22:11;;;;;;;;;;;;;;;18.75;60.84;99994.97;2078598;28;19929;-50
2022/04/17 01:27:08;;;;;;;;;;;;;;;18.73;61.04;99995.13;2083459;28;19924;-51
2022/04/17 01:28:09;;;;;;;;;;;;;;;18.74;60.96;99994.13;2079592;28;19921;-50
2022/04/17 01:29:10;;;;;;;;;;;;;;;18.74;60.97;99988.66;2083470;28;20132;-49
2022/04/17 01:30:10;;;;;;;;;;;;;;;18.73;60.96;99984.19;2080492;28;20341;-49
2022/04/17 01:31:10;;;;;;;;;;;;;;;18.73;61.01;99986.94;2082988;28;20408;-48
2022/04/17 01:32:10;;;;;;;;;;;;;;;18.73;60.90;99992.38;2084822;28;20553;-48
2022/04/17 01:33:11;;;;;;;;;;;;;;;18.73;60.84;99986.06;2079742;28;19967;-51
2022/04/17 01:34:13;;;;;;;;;;;;;;;18.73;60.77;99989.66;2083741;28;20178;-49
2022/04/17 01:35:13;;;;;;;;;;;;;;;18.73;60.76;99986.94;2084602;28;20354;-49
2022/04/17 01:36:13;;;;;;;;;;;;;;;18.74;60.76;99987.78;2081634;28;19930;-49
2022/04/17 01:37:14;;;;;;;;;;;;;;;18.73;60.77;99992.38;2079048;28;19921;-52
2022/04/17 01:38:15;;;;;;;;;;;;;;;18.73;60.79;99986.06;2081089;28;19920;-51
2022/04/17 01:39:16;;;;;;;;;;;;;;;18.73;60.67;99992.38;2083175;28;19966;-49
2022/04/17 01:40:16;;;;;;;;;;;;;;;18.73;60.77;99986.94;2085053;28;19919;-48
2022/04/17 01:41:18;;;;;;;;;;;;;;;18.74;60.68;99985.94;2082609;28;19923;-52
2022/04/17 01:42:18;;;;;;;;;;;;;;;18.74;60.68;99987.78;2078533;28;19965;-48
2022/04/17 01:43:18;;;;;;;;;;;;;;;18.73;60.67;99995.13;2083202;28;20418;-48
2022/04/17 01:44:19;;;;;;;;;;;;;;;18.73;60.82;99995.13;2081560;28;19915;-49
2022/04/17 01:45:20;;;;;;;;;;;;;;;18.72;60.71;99990.69;2084520;28;19913;-50
2022/04/17 01:46:22;;;;;;;;;;;;;;;18.73;60.70;99992.38;2078637;28;19932;-50
2022/04/17 01:47:23;;;;;;;;;;;;;;;18.72;60.71;99990.69;2083319;28;19916;-52
2022/04/17 01:48:23;;;;;;;;;;;;;;;18.72;60.77;99996.13;2080226;28;19921;-50
2022/04/17 01:49:24;;;;;;;;;;;;;;;18.72;60.82;99992.56;2079351;28;20010;-49
2022/04/17 01:50:26;;;;;;;;;;;;;;;18.71;60.86;99988.09;2084090;28;20439;-50
2022/04/17 01:51:27;;;;;;;;;;;;;;;18.71;60.89;99993.56;2078027;28;20747;-48
2022/04/17 01:52:27;;;;;;;;;;;;;;;18.71;60.84;99994.41;2082195;28;20530;-49
2022/04/17 01:53:27;;;;;;;;;;;;;;;18.70;60.85;99992.69;2079483;28;20041;-50
2022/04/17 01:54:28;;;;;;;;;;;;;;;18.70;60.81;99987.22;2084190;28;19959;-49
2022/04/17 01:55:29;;;;;;;;;;;;;;;18.69;60.95;99985.53;2082189;28;20037;-51
2022/04/17 01:56:29;;;;;;;;;;;;;;;18.70;60.89;99995.44;2079738;28;19920;-48
2022/04/17 01:57:29;;;;;;;;;;;;;;;18.70;60.89;99991.84;2082769;28;20085;-48
2022/04/17 01:58:30;;;;;;;;;;;;;;;18.68;60.95;99986.53;2082720;28;19927;-51
2022/04/17 01:59:30;;;;;;;;;;;;;;;18.69;60.92;99998.28;2082968;28;19912;-49
2022/04/17 02:00:30;;;;;;;;;;;;;;;18.69;60.96;99999.19;2082632;28;19916;-48
2022/04/17 02:01:34;;;;;;;;;;;;;;;18.70;60.93;100002.75;2089661;28;19916;-48
2022/04/17 02:02:34;;;;;;;;;;;;;;;18.69;60.79;100001.03;2078684;28;20097;-49
2022/04/17 02:03:34;;;;;;;;;;;;;;;18.69;60.99;99996.44;2085112;28;19916;-51
2022/04/17 02:04:35;;;;;;;;;;;;;;;18.69;60.91;99992.84;2079353;28;19920;-51
2022/04/17 02:05:35;;;;;;;;;;;;;;;18.70;60.81;100002.75;2085295;28;20344;-49
2022/04/17 02:06:39;;;;;;;;;;;;;;;18.69;60.87;99999.19;2077194;28;19920;-49
2022/04/17 02:07:39;;;;;;;;;;;;;;;18.69;60.80;99995.56;2083471;28;19926;-49
2022/04/17 02:08:40;;;;;;;;;;;;;;;18.69;60.80;99999.19;2085214;28;19938;-49
2022/04/17 02:09:40;;;;;;;;;;;;;;;18.69;60.55;100001.91;2084132;28;19916;-52
2022/04/17 02:10:41;;;;;;;;;;;;;;;18.69;60.66;99996.44;2085306;28;19941;-52
2022/04/17 02:11:42;;;;;;;;;;;;;;;18.71;60.71;100009.94;2076651;28;19959;-49
2022/04/17 02:12:42;;;;;;;;;;;;;;;18.69;60.77;100001.91;2078364;28;21457;-50
2022/04/17 02:13:42;;;;;;;;;;;;;;;18.69;60.79;100007.38;2084763;28;19998;-49
2022/04/17 02:14:43;;;;;;;;;;;;;;;18.70;60.82;100002.75;2082398;28;19908;-51
2022/04/17 02:15:43;;;;;;;;;;;;;;;18.68;60.58;100000.16;2085969;28;19920;-48
2022/04/17 02:16:43;;;;;;;;;;;;;;;18.69;60.67;100007.38;2082251;28;19917;-51
2022/04/17 02:17:44;;;;;;;;;;;;;;;18.70;60.74;100000.03;2082945;28;19927;-49
2022/04/17 02:18:45;;;;;;;;;;;;;;;18.69;60.58;100001.91;2084906;28;19916;-51
2022/04/17 02:19:45;;;;;;;;;;;;;;;18.68;60.69;100011.09;2082466;28;19922;-48
2022/04/17 02:20:46;;;;;;;;;;;;;;;18.68;60.79;100004.78;2085013;28;19926;-49
2022/04/17 02:21:46;;;;;;;;;;;;;;;18.68;60.89;100002.91;2081219;28;19920;-51
2022/04/17 02:22:46;;;;;;;;;;;;;;;18.67;60.88;99998.47;2084312;28;19973;-47
2022/04/17 02:23:47;;;;;;;;;;;;;;;18.68;60.73;100004.78;2086547;28;20352;-51
2022/04/17 02:24:48;;;;;;;;;;;;;;;18.67;60.73;100003.94;2078678;28;19955;-50
2022/04/17 02:25:48;;;;;;;;;;;;;;;18.67;60.73;100008.50;2083165;28;20316;-48
2022/04/17 02:26:48;;;;;;;;;;;;;;;18.67;60.69;100003.03;2081872;28;20148;-47
2022/04/17 02:27:48;;;;;;;;;;;;;;;18.66;60.58;100001.34;2084683;28;20492;-49
2022/04/17 02:28:49;;;;;;;;;;;;;;;18.65;60.50;100000.47;2083590;28;20083;-50
2022/04/17 02:29:49;;;;;;;;;;;;;;;18.66;60.64;100004.91;2077756;28;19924;-51
2022/04/17 02:30:49;;;;;;;;;;;;;;;18.64;60.61;99996.91;2083115;28;19948;-48
2022/04/17 02:31:50;;;;;;;;;;;;;;;18.65;60.66;100003.22;2080496;28;20405;-49
2022/04/17 02:32:50;;;;;;;;;;;;;;;18.65;60.63;100011.41;2081351;28;19924;-49
2022/04/17 02:33:51;;;;;;;;;;;;;;;18.64;60.65;100004.19;2077701;28;20059;-51
2022/04/17 02:34:51;;;;;;;;;;;;;;;18.64;60.79;99996.00;2081444;28;19931;-49
2022/04/17 02:35:52;;;;;;;;;;;;;;;18.64;60.69;100002.34;2085379;28;19927;-49
2022/04/17 02:36:53;;;;;;;;;;;;;;;18.64;60.69;100002.34;2078698;28;19920;-50
2022/04/17 02:37:53;;;;;;;;;;;;;;;18.64;60.59;99996.91;2085221;28;20259;-49
2022/04/17 02:38:53;;;;;;;;;;;;;;;18.63;60.42;99995.16;2087741;28;19959;-49
2022/04/17 02:39:54;;;;;;;;;;;;;;;18.64;60.51;99994.16;2079111;28;19956;-49
2022/04/17 02:40:54;;;;;;;;;;;;;;;18.64;60.54;99994.16;2084202;28;20250;-49
2022/04/17 02:41:54;;;;;;;;;;;;;;;18.64;60.47;99993.28;2082838;28;19928;-49
2022/04/17 02:42:55;;;;;;;;;;;;;;;18.64;60.55;99993.28;2080029;28;19920;-52
2022/04/17 02:43:55;;;;;;;;;;;;;;;18.64;60.49;99993.28;2077003;28;19928;-49
2022/04/17 02:44:55;;;;;;;;;;;;;;;18.66;60.30;99995.88;2082318;28;19920;-49
2022/04/17 02:45:56;;;;;;;;;;;;;;;18.65;60.16;99995.03;2085021;28;19920;-48
2022/04/17 02:48:15;;;;;;;;;;;;;;;18.64;60.06;99993.28;2081733;28;19960;-52
2022/04/17 02:49:16;;;;;;;;;;;;;;;18.64;60.10;99991.44;2082820;28;20314;-52
2022/04/17 02:50:17;;;;;;;;;;;;;;;18.65;60.17;99995.03;2080274;28;19921;-49
2022/04/17 02:51:18;;;;;;;;;;;;;;;18.64;60.18;99993.28;2084056;28;19921;-49
2022/04/17 02:52:18;;;;;;;;;;;;;;;18.61;60.21;99994.44;2083952;28;20006;-50
2022/04/17 02:53:20;;;;;;;;;;;;;;;18.64;60.34;99994.16;2088749;28;19926;-48
2022/04/17 02:54:21;;;;;;;;;;;;;;;18.62;60.28;99996.19;2080914;28;20304;-49
2022/04/17 02:55:21;;;;;;;;;;;;;;;18.62;60.29;99992.59;2082434;28;20285;-49
2022/04/17 02:56:22;;;;;;;;;;;;;;;18.62;60.61;99989.88;2084876;28;20299;-49
2022/04/17 02:57:23;;;;;;;;;;;;;;;18.63;60.45;99991.56;2080850;28;20278;-49
2022/04/17 02:58:23;;;;;;;;;;;;;;;18.62;60.51;99989.88;2076953;28;19931;-52
2022/04/17 02:59:24;;;;;;;;;;;;;;;18.62;60.44;99989.88;2085840;28;19920;-50
2022/04/17 03:00:26;;;;;;;;;;;;;;;18.61;60.38;99999.03;2080651;28;20607;-49
2022/04/17 03:05:36;;;;;;;;;;;;;;;18.59;60.42;99990.13;2077550;28;19932;-49
2022/04/17 03:06:37;;;;;;;;;;;;;;;18.59;60.28;99996.47;2080417;28;19924;-48
2022/04/17 03:07:38;;;;;;;;;;;;;;;18.59;60.21;99992.88;2083637;28;19916;-48
2022/04/17 03:08:39;;;;;;;;;;;;;;;18.59;60.15;99992.88;2081563;28;20389;-49
2022/04/17 03:09:39;;;;;;;;;;;;;;;18.60;60.22;99992.72;2080589;28;19952;-48
2022/04/17 03:10:41;;;;;;;;;;;;;;;18.59;60.13;99990.13;2082276;28;19916;-48
2022/04/17 03:11:42;;;;;;;;;;;;;;;18.61;60.05;99993.59;2082023;28;19922;-48
2022/04/17 03:12:43;;;;;;;;;;;;;;;18.59;60.22;99984.69;2085074;28;19931;-48
2022/04/17 03:13:44;;;;;;;;;;;;;;;18.59;60.35;99982.84;2081391;28;19920;-51
2022/04/17 03:14:46;;;;;;;;;;;;;;;18.60;60.11;99986.41;2084432;28;19928;-51
2022/04/17 03:15:46;;;;;;;;;;;;;;;18.60;60.06;99989.16;2083365;28;19927;-51
2022/04/17 03:16:47;;;;;;;;;;;;;;;18.60;59.86;99991.88;2082193;28;20333;-50
2022/04/17 03:17:47;;;;;;;;;;;;;;;18.59;59.88;99984.69;2082313;28;19931;-48
2022/04/17 03:18:49;;;;;;;;;;;;;;;18.59;60.09;99992.88;2080853;28;19920;-49
2022/04/17 03:19:51;;;;;;;;;;;;;;;18.58;59.90;99989.28;2083485;28;20166;-49
2022/04/17 03:20:51;;;;;;;;;;;;;;;18.59;59.82;99984.69;2082338;28;19920;-49
2022/04/17 03:21:51;;;;;;;;;;;;;;;18.59;59.78;99988.28;2084630;28;19974;-47
2022/04/17 03:22:52;;;;;;;;;;;;;;;18.60;59.67;99991.88;2077204;28;20274;-48
2022/04/17 03:23:52;;;;;;;;;;;;;;;18.59;59.77;99984.69;2080376;28;19916;-48
2022/04/17 03:24:53;;;;;;;;;;;;;;;18.60;59.79;99992.72;2084496;28;20332;-50
2022/04/17 03:25:53;;;;;;;;;;;;;;;18.59;59.96;99990.13;2082071;28;19995;-51
2022/04/17 03:26:54;;;;;;;;;;;;;;;18.58;59.91;99986.56;2082584;28;19924;-47
2022/04/17 03:27:54;;;;;;;;;;;;;;;18.58;59.90;99994.75;2084771;28;20208;-50
2022/04/17 03:28:55;;;;;;;;;;;;;;;18.58;59.75;99989.28;2083803;28;19920;-51
2022/04/17 03:29:55;;;;;;;;;;;;;;;18.58;59.70;99993.88;2081432;28;19943;-51
2022/04/17 03:30:56;;;;;;;;;;;;;;;18.58;59.82;99991.16;2081536;28;20414;-54
2022/04/17 03:31:57;;;;;;;;;;;;;;;18.57;59.84;99993.03;2082142;28;19920;-48
2022/04/17 03:32:59;;;;;;;;;;;;;;;18.57;59.89;99992.16;2100915;28;20022;-49
2022/04/17 03:33:59;;;;;;;;;;;;;;;18.56;59.70;99995.91;2092585;28;20113;-48
2022/04/17 03:35:00;;;;;;;;;;;;;;;18.56;59.80;99991.31;2082302;28;19936;-48
2022/04/17 03:36:00;;;;;;;;;;;;;;;18.56;59.68;99994.03;2081293;28;19916;-49
2022/04/17 03:37:00;;;;;;;;;;;;;;;18.57;59.87;99998.50;2079800;28;20034;-49
2022/04/17 03:38:01;;;;;;;;;;;;;;;18.57;59.88;99997.63;2083142;28;19927;-50
2022/04/17 03:39:01;;;;;;;;;;;;;;;18.56;59.81;99995.91;2072864;28;20173;-50
2022/04/17 03:40:01;;;;;;;;;;;;;;;18.55;59.79;99997.78;2077446;28;19928;-48
2022/04/17 03:41:02;;;;;;;;;;;;;;;18.55;59.68;100000.50;2098487;28;20237;-49
2022/04/17 03:42:02;;;;;;;;;;;;;;;18.56;59.66;99998.63;2099498;28;19925;-48
2022/04/17 03:43:02;;;;;;;;;;;;;;;18.55;59.65;99995.06;2082873;28;20203;-49
2022/04/17 03:44:03;;;;;;;;;;;;;;;18.55;59.74;100002.38;2079050;28;19924;-49
2022/04/17 03:45:06;;;;;;;;;;;;;;;18.55;59.76;99995.06;2078651;28;20752;-50
2022/04/17 03:46:06;;;;;;;;;;;;;;;18.56;59.78;99998.63;2082878;28;19928;-49
2022/04/17 03:47:06;;;;;;;;;;;;;;;18.56;59.77;99990.44;2079506;28;19917;-49
2022/04/17 03:48:07;;;;;;;;;;;;;;;18.56;59.77;100001.38;2081905;28;19921;-51
2022/04/17 03:49:07;;;;;;;;;;;;;;;18.56;59.79;99996.75;2083606;28;20037;-47
2022/04/17 03:50:08;;;;;;;;;;;;;;;18.57;59.63;100003.06;2077588;28;20283;-49
2022/04/17 03:51:08;;;;;;;;;;;;;;;18.56;59.60;99995.91;2082453;28;19921;-49
2022/04/17 03:52:08;;;;;;;;;;;;;;;18.56;59.68;99990.44;2076795;28;19942;-50
2022/04/17 03:53:09;;;;;;;;;;;;;;;18.56;59.47;99990.44;2082152;28;19916;-49
2022/04/17 03:54:09;;;;;;;;;;;;;;;18.56;59.47;100001.38;2078307;28;20322;-50
2022/04/17 03:55:10;;;;;;;;;;;;;;;18.57;59.50;100003.06;2084793;28;19923;-49
2022/04/17 03:56:11;;;;;;;;;;;;;;;18.55;59.41;100000.50;2080810;28;19931;-49
2022/04/17 03:57:11;;;;;;;;;;;;;;;18.57;59.47;99997.63;2070175;28;20240;-52
2022/04/17 03:58:12;;;;;;;;;;;;;;;18.56;59.48;99998.63;2081296;28;20021;-50
2022/04/17 03:59:12;;;;;;;;;;;;;;;18.56;59.55;99995.91;2078673;28;19917;-49
2022/04/17 04:00:13;;;;;;;;;;;;;;;18.55;59.65;99994.19;2076941;28;19998;-49
2022/04/17 04:01:13;;;;;;;;;;;;;;;18.55;59.58;99995.06;2083131;28;19924;-50
2022/04/17 04:02:13;;;;;;;;;;;;;;;18.54;59.60;99998.78;2081690;28;19962;-50
2022/04/17 04:03:14;;;;;;;;;;;;;;;18.54;59.71;99992.47;2079531;28;19946;-49
2022/04/17 04:04:18;;;;;;;;;;;;;;;18.53;59.71;99996.22;2080474;28;20254;-49
2022/04/17 04:05:19;;;;;;;;;;;;;;;18.53;59.44;99994.34;2078510;28;20437;-48
2022/04/17 04:06:21;;;;;;;;;;;;;;;18.54;59.50;99992.47;2076223;28;19925;-48
2022/04/17 04:07:21;;;;;;;;;;;;;;;18.53;59.42;99990.75;2079846;28;19926;-49
2022/04/17 04:08:21;;;;;;;;;;;;;;;18.53;59.46;99996.22;2083472;28;19927;-48
2022/04/17 04:09:22;;;;;;;;;;;;;;;18.52;59.54;99992.63;2078752;28;20391;-49
2022/04/17 04:10:22;;;;;;;;;;;;;;;18.52;59.70;99989.00;2083253;28;20238;-49
2022/04/17 04:11:22;;;;;;;;;;;;;;;18.52;59.65;99989.00;2080584;28;20015;-48
2022/04/17 04:12:23;;;;;;;;;;;;;;;18.53;59.69;99990.75;2080339;28;19970;-50
2022/04/17 04:13:23;;;;;;;;;;;;;;;18.51;59.78;99987.31;2082026;28;19917;-50
2022/04/17 04:14:23;;;;;;;;;;;;;;;18.52;59.59;99989.00;2079155;28;20220;-49
2022/04/17 04:15:24;;;;;;;;;;;;;;;18.52;59.63;99989.00;2082709;28;19920;-50
2022/04/17 04:16:24;;;;;;;;;;;;;;;18.52;59.65;99989.00;2078756;28;19935;-49
2022/04/17 04:17:24;;;;;;;;;;;;;;;18.52;59.67;99998.09;2079079;28;19928;-48
2022/04/17 04:18:25;;;;;;;;;;;;;;;18.53;59.81;99993.47;2080886;28;19959;-50
2022/04/17 04:19:25;;;;;;;;;;;;;;;18.52;59.78;99989.00;2078156;28;19959;-48
2022/04/17 04:20:25;;;;;;;;;;;;;;;18.53;59.81;99996.22;2077380;28;20235;-49
2022/04/17 04:21:25;;;;;;;;;;;;;;;18.52;59.65;99986.28;2077121;28;19988;-48
2022/04/17 04:22:26;;;;;;;;;;;;;;;18.52;59.72;99991.75;2076208;28;19920;-48
2022/04/17 04:23:27;;;;;;;;;;;;;;;18.51;59.69;99990.03;2083851;28;20289;-48
2022/04/17 04:24:27;;;;;;;;;;;;;;;18.52;59.47;99989.00;2074045;28;19921;-48
2022/04/17 04:25:28;;;;;;;;;;;;;;;18.52;59.48;99991.75;2088717;28;20342;-48
2022/04/17 04:26:30;;;;;;;;;;;;;;;18.52;59.46;99994.47;2089465;28;19931;-49
2022/04/17 04:28:49;;;;;;;;;;;;;;;18.52;59.56;99995.34;2082599;28;20004;-48
2022/04/17 04:29:50;;;;;;;;;;;;;;;18.51;59.44;99993.63;2075740;28;20463;-48
2022/04/17 04:30:50;;;;;;;;;;;;;;;18.51;59.45;99988.16;2083404;28;19985;-49
2022/04/17 04:31:50;;;;;;;;;;;;;;;18.52;59.56;99989.00;2075801;28;19982;-49
2022/04/17 04:32:52;;;;;;;;;;;;;;;18.51;59.48;99992.75;2081356;28;20256;-47
2022/04/17 04:33:52;;;;;;;;;;;;;;;18.51;59.37;99987.31;2079035;28;20610;-47
2022/04/17 04:34:56;;;;;;;;;;;;;;;18.50;59.48;99985.59;2081443;28;20537;-49
2022/04/17 04:35:58;;;;;;;;;;;;;;;18.51;59.46;99990.03;2084860;28;20003;-48
2022/04/17 04:36:59;;;;;;;;;;;;;;;18.51;59.55;99992.75;2078526;28;20468;-50
2022/04/17 04:38:00;;;;;;;;;;;;;;;18.49;59.46;99984.72;2078152;28;20496;-50
2022/04/17 04:39:00;;;;;;;;;;;;;;;18.50;59.57;99988.31;2083708;28;19931;-50
2022/04/17 04:40:01;;;;;;;;;;;;;;;18.48;59.59;99993.06;2080085;28;19931;-47
2022/04/17 04:41:01;;;;;;;;;;;;;;;18.49;59.65;99990.16;2080945;28;20164;-49
2022/04/17 04:42:02;;;;;;;;;;;;;;;18.48;59.67;99993.94;2084961;28;20389;-48
2022/04/17 04:43:03;;;;;;;;;;;;;;;18.48;59.55;99987.59;2078645;28;20240;-47
2022/04/17 04:44:04;;;;;;;;;;;;;;;18.48;59.59;99996.66;2082731;28;19924;-49
2022/04/17 04:46:23;;;;;;;;;;;;;;;18.48;59.54;99990.34;2076885;28;19997;-49
2022/04/17 04:47:24;;;;;;;;;;;;;;;18.48;59.56;99987.59;2082401;28;20101;-48
2022/04/17 04:49:43;;;;;;;;;;;;;;;18.49;59.84;99992.03;2079826;28;19920;-50
2022/04/17 04:50:43;;;;;;;;;;;;;;;18.48;59.74;99993.06;2080426;28;19917;-48
2022/04/17 04:51:43;;;;;;;;;;;;;;;18.48;59.84;99998.53;2081971;28;20069;-48
2022/04/17 04:52:44;;;;;;;;;;;;;;;18.47;59.79;99997.66;2079000;28;19924;-49
2022/04/17 04:53:44;;;;;;;;;;;;;;;18.49;59.68;100005.69;2082583;28;19928;-50
2022/04/17 04:54:44;;;;;;;;;;;;;;;18.48;59.55;99998.53;2078023;28;20397;-48
2022/04/17 04:55:45;;;;;;;;;;;;;;;18.48;59.62;100004.00;2083285;28;19909;-48
2022/04/17 04:56:45;;;;;;;;;;;;;;;18.48;59.64;99998.53;2082055;28;19928;-47
2022/04/17 04:57:45;;;;;;;;;;;;;;;18.48;59.50;100004.00;2080512;28;19916;-48
2022/04/17 04:58:46;;;;;;;;;;;;;;;18.47;59.48;100002.25;2078334;28;19916;-47
2022/04/17 04:59:46;;;;;;;;;;;;;;;18.48;59.50;99998.53;2081927;28;20319;-48
2022/04/17 05:00:47;;;;;;;;;;;;;;;18.48;59.52;100004.00;2082681;28;19955;-48
2022/04/17 05:01:51;;;;;;;;;;;;;;;18.48;59.50;100004.00;2077599;28;20385;-48
2022/04/17 05:02:51;;;;;;;;;;;;;;;18.47;59.44;100004.97;2083453;28;19916;-48
2022/04/17 05:03:52;;;;;;;;;;;;;;;18.47;59.33;100002.25;2080109;28;23475;-49
2022/04/17 05:04:52;;;;;;;;;;;;;;;18.47;59.41;100007.72;2080635;28;19909;-48
2022/04/17 05:05:53;;;;;;;;;;;;;;;18.47;59.35;100013.16;2078412;28;20221;-50
2022/04/17 05:06:53;;;;;;;;;;;;;;;18.47;59.23;100005.88;2080184;28;19964;-48
2022/04/17 05:07:54;;;;;;;;;;;;;;;18.46;59.21;100008.72;2080080;28;20231;-48
2022/04/17 05:08:54;;;;;;;;;;;;;;;18.47;59.14;100007.72;2082153;28;20242;-48
2022/04/17 05:09:54;;;;;;;;;;;;;;;18.45;59.24;100007.00;2077928;28;19968;-48
2022/04/17 05:10:55;;;;;;;;;;;;;;;18.45;59.28;100007.88;2083663;28;20190;-48
2022/04/17 05:11:55;;;;;;;;;;;;;;;18.43;59.29;100013.47;2083410;28;20235;-50
2022/04/17 05:12:56;;;;;;;;;;;;;;;18.44;59.32;100011.59;2083503;28;19917;-49
2022/04/17 05:13:56;;;;;;;;;;;;;;;18.45;59.34;100015.19;2079865;28;19916;-48
2022/04/17 05:14:57;;;;;;;;;;;;;;;18.44;59.26;100019.78;2099349;28;20448;-52
2022/04/17 05:15:57;;;;;;;;;;;;;;;18.43;59.42;100008.00;2096222;28;19931;-50
2022/04/17 05:16:57;;;;;;;;;;;;;;;18.43;59.53;100013.47;2080100;28;20086;-49
2022/04/17 05:17:57;;;;;;;;;;;;;;;18.43;59.61;100018.94;2079882;28;20426;-50
2022/04/17 05:19:18;;;;;;;;;;;;;;;18.43;60.04;100008.00;2083800;28;20342;-51
2022/04/17 05:20:19;;;;;;;;;;;;;;;18.43;60.20;100018.94;2081163;28;19943;-47
2022/04/17 05:21:27;;;;;;;;;;;;;;;18.43;59.94;100015.34;2086539;28;19915;-47
2022/04/17 05:22:31;;;;;;;;;;;;;;;18.43;59.68;100018.94;2088730;28;19927;-48
2022/04/17 05:23:32;;;;;;;;;;;;;;;18.43;59.52;100024.38;2082233;28;19990;-49
2022/04/17 05:24:32;;;;;;;;;;;;;;;18.43;59.42;100023.53;2080898;28;20352;-48
2022/04/17 05:25:32;;;;;;;;;;;;;;;18.42;59.34;100022.69;2084548;28;20255;-49
2022/04/17 05:26:33;;;;;;;;;;;;;;;18.43;59.35;100021.66;2080116;28;20326;-50
2022/04/17 05:27:33;;;;;;;;;;;;;;;18.43;59.35;100024.38;2080845;28;20274;-49
2022/04/17 05:28:34;;;;;;;;;;;;;;;18.43;59.28;100013.47;2078229;28;19917;-48